Terminal Aerodrome Forecast
Issued by NWS Charleston, WV

Home | Current Version | Previous Version | Text Only | Print | Product List | Glossary On
Versions: 1 2 3 4 5 6 7 8 9 10 11 12 13 14 15 16 17 18 19 20 21 22 23
000
FTUS41 KRLX 272300 RRA
TAFCRW
TAF
KCRW 272341Z 2800/2824 29007KT 4SM -SHSN OVC025
      TEMPO 2800/2803 2SM -SHSN BR
     FM280400 29006KT 6SM -SHSN BKN030
     FM281100 28004KT P6SM BKN025
     FM281300 27006KT P6SM BKN035
     FM281700 25004KT P6SM SCT030 BKN120
     FM282000 22004KT P6SM BKN090=

USA.gov is the U.S. government's official web portal to all federal, state and local government web resources and services.